Airfield :
LOGIN :

Register | Disclaimer

   EN    FR    IT 

 










Legend :    VFR   Marginal VFR   IFR   Intensive IFR   Very Intensive IFR
Visi :
Ceiling :
>= 8 km
>= 3000ft
5 to 8 km
1000 to 3000 ft
1500m to 5 km
500 to 1000 ft
800 to 1500m
200 to 500 ft
< 800m
< 200 ft
Symbols :   Thunderstorms  Fog  Heavy snow  Heavy precipitations  Wind > 20 kt
SIGMETs :     Misc.  Thunderstorms  Icing  Turbulence  Mountain Waves  Volcanic Ashes







- Airport Elevation : 194 ft


EBCV - Chièvres

CURRENT METAR :
  • 230455Z AUTO 18017KT 9999 FEW160/// SCT230/// 12/05 Q0997 BLU

EXPIRED METARs :
  • 230425Z AUTO 18019KT 9999 BKN099/// BKN220/// 12/05 Q0997 BLU
  • 230355Z AUTO 18019KT 9999 OVC097/// 11/05 Q0997 BLU
  • 230325Z AUTO 18018KT 9999 OVC100/// 12/05 Q0998 BLU
  • 230255Z AUTO 19018KT 9999 BKN120/// BKN210/// 12/04 Q0998 BLU
  • 230225Z AUTO 18017KT 9999 FEW130/// BKN150/// 11/04 Q0998 BLU

TAF TAF EBCV
Valid from the 22 at 19:00 until the 23 at 07:00 UTC


221541Z 2219/2307 19015KT 9999 FEW250
BECMG 2302/2304 19018G28KT SCT110 BKN250
PROB30
TEMPO 2305/2307 19020G35KT 6000 -RA -SHRA SCT030 BKN055 BY EBWM
No reported NOTAMs for that airfield.
3 SIGMETs reported for the Brussels FIR (EBBU) :
 
Severe turbulence
EBBU SIGMET 03 VALID 230300/230700 EBBR
EBBU BRUSSELS FIR SEV TURB FCST W OF E005 SFC/FL050 MOV NE 15KT NC=
SIGMET 01 cancelation
EBBU SIGMET 02 VALID 230300/230700 EBBR
EBBU BRUSSELS FIR CNL SIGMET 01 VALID 230300/230700=
SIGMET 01  CANCELED :
Severe turbulence
EBBU SIGMET 01 VALID 230300/230700 EBBR
EBBU BRUSSELS FIR SEV TURB FCST W E005 SFC/FL050 MOV NE 15KT NC=



MET'MAP, your aeronautical weather chart ! - Copyright ORBIFLY December 2007 - Disclaimer

ORBIFLY MET'MAP TEAM :

Programming & Development : Alexandra Zaïnal
Concept & Development : Baudouin d'Aumeries
Co-Development & Prog : Marc-Olivier Méhu
Technical & hardware support : Manuel Goepfert

Contact : metmap@orbifly.com




SOURCES & CREDITS :

   NOAA